createdAt,value
2022-09-03T00:00:23.817Z,19.27
2022-09-03T00:02:58.774Z,19.28
2022-09-03T00:05:34.550Z,19.16
2022-09-03T00:08:10.254Z,18.92
2022-09-03T00:10:47.136Z,18.80
2022-09-03T00:13:18.821Z,18.88
2022-09-03T00:15:46.939Z,19.02
2022-09-03T00:18:20.868Z,19.14
2022-09-03T00:20:54.628Z,19.18
2022-09-03T00:23:26.527Z,19.08
2022-09-03T00:26:01.153Z,19.02
2022-09-03T00:28:42.313Z,19.02
2022-09-03T00:31:18.471Z,19.00
2022-09-03T00:33:49.584Z,19.07
2022-09-03T00:36:21.966Z,19.09
2022-09-03T00:38:51.660Z,18.89
2022-09-03T00:41:31.533Z,18.68
2022-09-03T00:44:27.360Z,18.74
2022-09-03T00:47:01.503Z,18.96
2022-09-03T00:49:38.930Z,19.13
2022-09-03T00:52:23.290Z,19.21
2022-09-03T00:55:02.722Z,19.15
2022-09-03T00:57:44.336Z,18.97
2022-09-03T01:00:14.499Z,18.87
2022-09-03T01:02:58.083Z,18.93
2022-09-03T01:05:40.432Z,18.99
2022-09-03T01:08:32.301Z,19.04
2022-09-03T01:11:13.630Z,19.01
2022-09-03T01:13:47.277Z,19.04
2022-09-03T01:16:27.393Z,19.09
2022-09-03T01:19:05.270Z,19.09
2022-09-03T01:21:58.731Z,19.12
2022-09-03T01:24:49.692Z,19.03
2022-09-03T01:27:33.455Z,18.95
2022-09-03T01:30:09.264Z,18.99
2022-09-03T01:32:45.847Z,19.05
2022-09-03T01:35:25.448Z,19.06
2022-09-03T01:38:13.952Z,18.99
2022-09-03T01:40:51.802Z,18.96
2022-09-03T01:43:39.225Z,19.01
2022-09-03T01:46:20.138Z,18.99
2022-09-03T01:48:55.106Z,19.01
2022-09-03T01:51:25.200Z,18.85
2022-09-03T01:54:20.893Z,18.73
2022-09-03T01:57:35.493Z,18.37
2022-09-03T02:00:08.264Z,18.49
2022-09-03T02:02:47.899Z,18.71
2022-09-03T02:05:18.468Z,18.92
2022-09-03T02:07:48.824Z,18.95
2022-09-03T02:10:19.618Z,18.88
2022-09-03T02:12:55.536Z,18.88
2022-09-03T02:15:26.356Z,18.98
2022-09-03T02:18:00.159Z,18.80
2022-09-03T02:20:30.738Z,18.75
2022-09-03T02:22:59.748Z,18.68
2022-09-03T02:25:34.786Z,18.59
2022-09-03T02:28:04.799Z,18.75
2022-09-03T02:30:37.171Z,18.79
2022-09-03T02:33:07.516Z,18.83
2022-09-03T02:35:36.008Z,18.82
2022-09-03T02:38:11.914Z,18.73
2022-09-03T02:40:40.678Z,18.64
2022-09-03T02:43:15.774Z,18.68
2022-09-03T02:45:48.847Z,18.69
2022-09-03T02:48:23.971Z,18.65
2022-09-03T02:50:52.533Z,18.66
2022-09-03T02:53:20.912Z,18.69
2022-09-03T02:55:49.108Z,18.70
2022-09-03T02:58:17.507Z,18.55
2022-09-03T03:00:45.584Z,18.51
2022-09-03T03:03:13.646Z,18.54
2022-09-03T03:05:47.082Z,18.62
2022-09-03T03:08:17.169Z,18.67
2022-09-03T03:10:46.129Z,18.75
2022-09-03T03:13:14.515Z,18.76
2022-09-03T03:15:42.538Z,18.73
2022-09-03T03:18:12.347Z,18.77
2022-09-03T03:20:40.658Z,18.75
2022-09-03T03:23:10.474Z,18.65
2022-09-03T03:25:40.238Z,18.63
2022-09-03T03:28:08.974Z,18.60
2022-09-03T03:30:40.317Z,18.56
2022-09-03T03:33:08.568Z,18.37
2022-09-03T03:35:36.984Z,18.29
2022-09-03T03:38:05.126Z,18.18
2022-09-03T03:40:34.830Z,18.20
2022-09-03T03:43:02.813Z,18.12
2022-09-03T03:45:30.831Z,18.22
2022-09-03T03:47:59.810Z,18.39
2022-09-03T03:50:28.039Z,18.49
2022-09-03T03:52:56.265Z,18.57
2022-09-03T03:55:27.157Z,18.57
2022-09-03T03:57:56.761Z,18.61
2022-09-03T04:00:24.833Z,18.66
2022-09-03T04:02:52.906Z,18.65
2022-09-03T04:05:22.970Z,18.67
2022-09-03T04:07:51.337Z,18.65
2022-09-03T04:10:19.296Z,18.49
2022-09-03T04:12:47.327Z,18.38
2022-09-03T04:15:16.872Z,18.40
2022-09-03T04:17:45.276Z,18.40
2022-09-03T04:20:13.223Z,18.39
2022-09-03T04:22:41.288Z,18.40
2022-09-03T04:25:10.139Z,18.35
2022-09-03T04:27:38.452Z,18.34
2022-09-03T04:30:07.747Z,18.35
2022-09-03T04:32:56.013Z,18.36
2022-09-03T04:35:26.044Z,18.35
2022-09-03T04:37:55.321Z,18.38
2022-09-03T04:40:23.256Z,18.38
2022-09-03T04:42:51.506Z,18.37
2022-09-03T04:45:19.663Z,18.31
2022-09-03T04:47:58.753Z,18.24
2022-09-03T04:50:28.005Z,18.19
2022-09-03T04:53:07.597Z,18.19
2022-09-03T04:55:36.482Z,18.25
2022-09-03T04:58:04.724Z,18.34
2022-09-03T05:00:32.738Z,18.34
2022-09-03T05:03:04.938Z,18.40
2022-09-03T05:05:33.746Z,18.40
2022-09-03T05:08:02.552Z,18.37
2022-09-03T05:10:30.703Z,18.35
2022-09-03T05:13:03.184Z,18.32
2022-09-03T05:15:31.829Z,18.30
2022-09-03T05:18:01.137Z,18.31
2022-09-03T05:20:32.713Z,18.22
2022-09-03T05:23:03.833Z,18.17
2022-09-03T05:25:33.255Z,18.18
2022-09-03T05:28:02.784Z,18.22
2022-09-03T05:30:30.824Z,18.25
2022-09-03T05:32:58.799Z,18.25
2022-09-03T05:35:30.212Z,18.22
2022-09-03T05:38:00.869Z,18.26
2022-09-03T05:40:29.519Z,18.34
2022-09-03T05:42:59.855Z,18.35
2022-09-03T05:45:28.012Z,18.42
2022-09-03T05:47:56.077Z,18.35
2022-09-03T05:50:23.995Z,18.26
2022-09-03T05:52:51.934Z,18.28
2022-09-03T05:55:21.353Z,18.37
2022-09-03T05:57:53.184Z,18.39
2022-09-03T06:00:22.377Z,18.43
2022-09-03T06:02:52.672Z,18.47
2022-09-03T06:05:21.146Z,18.51
2022-09-03T06:07:49.662Z,18.50
2022-09-03T06:10:20.292Z,18.50
2022-09-03T06:12:54.110Z,18.36
2022-09-03T06:15:22.080Z,18.27
2022-09-03T06:17:50.060Z,18.17
2022-09-03T06:20:18.032Z,18.11
2022-09-03T06:22:52.707Z,18.41
2022-09-03T06:25:20.701Z,18.57
2022-09-03T06:27:49.518Z,18.68
2022-09-03T06:30:19.038Z,18.66
2022-09-03T06:32:47.671Z,18.63
2022-09-03T06:35:16.049Z,18.63
2022-09-03T06:37:44.639Z,18.65
2022-09-03T06:40:13.636Z,18.70
2022-09-03T06:42:45.813Z,18.67
2022-09-03T06:45:14.114Z,18.61
2022-09-03T06:47:43.567Z,18.55
2022-09-03T06:50:12.159Z,18.49
2022-09-03T06:52:40.116Z,18.33
2022-09-03T06:55:08.829Z,18.29
2022-09-03T06:57:36.771Z,18.17
2022-09-03T07:00:05.792Z,18.26
2022-09-03T07:02:33.725Z,18.47
2022-09-03T07:05:03.199Z,18.69
2022-09-03T07:07:32.669Z,18.65
2022-09-03T07:10:01.846Z,18.69
2022-09-03T07:12:29.887Z,18.74
2022-09-03T07:14:57.920Z,18.72
2022-09-03T07:17:25.841Z,18.88
2022-09-03T07:19:53.795Z,19.08
2022-09-03T07:22:31.213Z,19.26
2022-09-03T07:24:59.625Z,19.38
2022-09-03T07:27:27.583Z,19.50
2022-09-03T07:29:55.531Z,19.45
2022-09-03T07:32:23.469Z,19.31
2022-09-03T07:34:52.904Z,19.18
2022-09-03T07:37:20.921Z,19.08
2022-09-03T07:39:50.374Z,19.08
2022-09-03T07:42:18.563Z,19.13
2022-09-03T07:44:46.537Z,19.16
2022-09-03T07:47:15.102Z,19.24
2022-09-03T07:49:48.754Z,19.41
2022-09-03T07:52:16.774Z,19.54
2022-09-03T07:54:46.559Z,19.58
2022-09-03T07:57:15.883Z,19.56
2022-09-03T07:59:43.850Z,19.49
2022-09-03T08:02:11.825Z,19.57
2022-09-03T08:04:40.580Z,19.61
2022-09-03T08:07:08.596Z,19.57
2022-09-03T08:09:36.583Z,19.62
2022-09-03T08:12:05.752Z,19.74
2022-09-03T08:14:35.116Z,19.82
2022-09-03T08:17:03.062Z,19.82
2022-09-03T08:19:31.140Z,19.80
2022-09-03T08:21:59.145Z,19.77
2022-09-03T08:24:27.168Z,19.90
2022-09-03T08:26:55.127Z,20.12
2022-09-03T08:29:23.144Z,20.25
2022-09-03T08:31:52.657Z,20.39
2022-09-03T08:34:20.991Z,20.48
2022-09-03T08:36:50.415Z,20.64
2022-09-03T08:39:18.505Z,20.79
2022-09-03T08:42:10.614Z,20.81
2022-09-03T08:44:47.073Z,20.80
2022-09-03T08:47:21.862Z,20.81
2022-09-03T08:49:54.471Z,20.75
2022-09-03T08:52:29.059Z,20.91
2022-09-03T08:55:19.052Z,21.02
2022-09-03T08:57:49.803Z,21.10
2022-09-03T09:00:19.071Z,21.16
2022-09-03T09:03:16.256Z,21.17
2022-09-03T09:05:51.377Z,21.25
2022-09-03T09:08:30.608Z,21.23
2022-09-03T09:11:09.785Z,21.25
2022-09-03T09:13:44.821Z,21.28
2022-09-03T09:16:18.951Z,21.27
2022-09-03T09:19:04.185Z,21.20
2022-09-03T09:21:39.452Z,21.11
2022-09-03T09:24:14.127Z,21.11
2022-09-03T09:26:42.810Z,21.24
2022-09-03T09:29:12.563Z,21.26
2022-09-03T09:31:45.227Z,21.34
2022-09-03T09:34:14.612Z,21.32
2022-09-03T09:36:49.525Z,21.35
2022-09-03T09:39:17.921Z,21.24
2022-09-03T09:41:58.659Z,21.21
2022-09-03T09:44:28.277Z,21.40
2022-09-03T09:47:08.617Z,21.56
2022-09-03T09:49:44.854Z,21.46
2022-09-03T09:52:14.408Z,21.44
2022-09-03T09:54:45.987Z,21.46
2022-09-03T09:57:18.985Z,21.52
2022-09-03T09:59:48.065Z,21.52
2022-09-03T10:02:27.256Z,21.60
2022-09-03T10:05:01.822Z,21.57
2022-09-03T10:07:32.140Z,21.52
2022-09-03T10:10:07.008Z,21.58
2022-09-03T10:12:42.181Z,21.72
2022-09-03T10:15:24.008Z,21.72
2022-09-03T10:18:01.139Z,21.82
2022-09-03T10:20:37.827Z,21.94
2022-09-03T10:23:17.501Z,22.23
2022-09-03T10:26:04.650Z,22.49
2022-09-03T10:28:36.165Z,22.53
2022-09-03T10:31:22.440Z,22.33
2022-09-03T10:33:57.248Z,22.42
2022-09-03T10:36:29.938Z,22.36
2022-09-03T10:39:07.048Z,22.52
2022-09-03T10:41:50.097Z,22.59
2022-09-03T10:44:35.277Z,22.41
2022-09-03T10:47:18.613Z,22.60
2022-09-03T10:49:58.598Z,22.91
2022-09-03T10:52:38.238Z,22.90
2022-09-03T10:55:20.356Z,22.81
2022-09-03T10:57:56.034Z,23.07
2022-09-03T11:00:24.350Z,23.25
2022-09-03T11:03:21.745Z,23.04
2022-09-03T11:06:01.004Z,22.91
2022-09-03T11:08:35.920Z,22.80
2022-09-03T11:11:13.070Z,22.59
2022-09-03T11:13:47.603Z,22.47
2022-09-03T11:16:20.057Z,22.34
2022-09-03T11:18:51.409Z,22.21
2022-09-03T11:21:23.262Z,22.23
2022-09-03T11:24:03.758Z,22.23
2022-09-03T11:26:32.803Z,22.20
2022-09-03T11:29:08.428Z,22.21
2022-09-03T11:31:48.231Z,22.13
2022-09-03T11:34:32.042Z,22.18
2022-09-03T11:37:20.749Z,22.13
2022-09-03T11:39:58.812Z,22.05
2022-09-03T11:42:31.403Z,22.03
2022-09-03T11:45:15.785Z,21.96
2022-09-03T11:47:46.943Z,21.84
2022-09-03T11:50:22.120Z,21.72
2022-09-03T11:52:51.839Z,21.67
2022-09-03T11:55:50.991Z,21.61
2022-09-03T11:58:24.888Z,21.43
2022-09-03T12:00:55.154Z,20.94
2022-09-03T12:03:28.566Z,20.75
2022-09-03T12:06:14.957Z,20.65
2022-09-03T12:09:09.455Z,20.52
2022-09-03T12:11:50.232Z,20.55
2022-09-03T12:14:28.087Z,20.95
2022-09-03T12:17:06.786Z,21.13
2022-09-03T12:19:41.003Z,21.46
2022-09-03T12:22:15.065Z,21.66
2022-09-03T12:24:45.112Z,21.58
2022-09-03T12:27:24.355Z,21.77
2022-09-03T12:29:56.739Z,22.03
2022-09-03T12:32:24.938Z,22.32
2022-09-03T12:34:52.958Z,22.49
2022-09-03T12:40:21.293Z,22.73
2022-09-03T12:42:51.786Z,22.89
2022-09-03T12:45:21.908Z,23.06
2022-09-03T12:47:50.245Z,23.08
2022-09-03T12:50:21.056Z,23.11
2022-09-03T12:52:53.018Z,23.03
2022-09-03T12:55:36.344Z,22.97
2022-09-03T12:58:13.873Z,22.96
2022-09-03T13:00:47.172Z,23.07
2022-09-03T13:03:21.234Z,22.99
2022-09-03T13:05:53.216Z,22.96
2022-09-03T13:08:24.623Z,22.94
2022-09-03T13:10:56.167Z,23.02
2022-09-03T13:13:27.972Z,23.01
2022-09-03T13:16:27.218Z,22.99
2022-09-03T13:19:02.414Z,22.97
2022-09-03T13:21:42.387Z,22.93
2022-09-03T13:24:41.266Z,23.03
2022-09-03T13:27:21.141Z,23.39
2022-09-03T13:30:05.392Z,23.71
2022-09-03T13:32:42.925Z,23.65
2022-09-03T13:35:17.805Z,23.43
2022-09-03T13:37:50.556Z,23.28
2022-09-03T13:40:25.465Z,23.15
2022-09-03T13:42:56.322Z,23.19
2022-09-03T13:45:39.965Z,23.71
2022-09-03T13:48:32.432Z,24.14
2022-09-03T13:51:08.383Z,24.18
2022-09-03T13:53:45.801Z,24.32
2022-09-03T13:56:27.487Z,24.50
2022-09-03T13:59:01.497Z,24.28
2022-09-03T14:01:44.882Z,24.09
2022-09-03T14:04:19.061Z,24.11
2022-09-03T14:06:55.700Z,24.20
2022-09-03T14:09:34.871Z,24.18
2022-09-03T14:12:11.208Z,24.20
2022-09-03T14:14:47.037Z,24.63
2022-09-03T14:17:21.768Z,24.86
2022-09-03T14:19:58.616Z,24.68
2022-09-03T14:22:34.302Z,24.58
2022-09-03T14:25:10.236Z,24.30
2022-09-03T14:27:38.717Z,24.25
2022-09-03T14:30:18.570Z,24.61
2022-09-03T14:32:52.946Z,24.98
2022-09-03T14:35:36.081Z,25.31
2022-09-03T14:38:31.906Z,25.32
2022-09-03T14:41:07.051Z,25.50
2022-09-03T14:43:57.303Z,25.51
2022-09-03T14:46:38.883Z,25.51
2022-09-03T14:49:23.290Z,25.40
2022-09-03T14:52:07.131Z,25.34
2022-09-03T14:55:05.963Z,25.25
2022-09-03T14:57:50.689Z,24.97
2022-09-03T15:00:21.887Z,24.81
2022-09-03T15:03:17.351Z,24.64
2022-09-03T15:05:59.731Z,24.50
2022-09-03T15:08:40.816Z,24.37
2022-09-03T15:11:17.832Z,24.20
2022-09-03T15:13:51.029Z,24.12
2022-09-03T15:16:32.610Z,24.06
2022-09-03T15:19:13.467Z,23.95
2022-09-03T15:22:03.618Z,23.95
2022-09-03T15:24:44.253Z,23.91
2022-09-03T15:27:24.811Z,23.94
2022-09-03T15:29:59.605Z,23.91
2022-09-03T15:32:42.352Z,23.88
2022-09-03T15:35:12.124Z,23.83
2022-09-03T15:37:46.820Z,23.88
2022-09-03T15:40:28.600Z,23.88
2022-09-03T15:43:05.456Z,23.79
2022-09-03T15:45:39.031Z,23.67
2022-09-03T15:48:30.452Z,23.55
2022-09-03T15:51:13.889Z,23.46
2022-09-03T15:53:52.763Z,23.37
2022-09-03T15:56:26.602Z,23.34
2022-09-03T15:59:02.473Z,23.25
2022-09-03T16:01:38.055Z,23.21
2022-09-03T16:04:26.917Z,23.16
2022-09-03T16:07:02.974Z,23.13
2022-09-03T16:09:57.628Z,22.43
2022-09-03T16:12:40.796Z,22.05
2022-09-03T16:15:14.095Z,21.90
2022-09-03T16:17:53.608Z,21.91
2022-09-03T16:20:27.180Z,21.90
2022-09-03T16:23:04.819Z,21.95
2022-09-03T16:25:46.320Z,22.03
2022-09-03T16:28:20.520Z,22.09
2022-09-03T16:31:01.837Z,22.17
2022-09-03T16:33:36.422Z,22.09
2022-09-03T16:36:18.876Z,22.09
2022-09-03T16:38:59.686Z,22.05
2022-09-03T16:41:36.164Z,22.08
2022-09-03T16:44:13.111Z,22.13
2022-09-03T16:46:48.564Z,22.17
2022-09-03T16:49:36.042Z,22.23
2022-09-03T16:52:16.816Z,22.21
2022-09-03T16:54:59.750Z,22.19
2022-09-03T16:57:44.312Z,22.18
2022-09-03T17:00:14.876Z,22.24
2022-09-03T17:03:12.223Z,22.30
2022-09-03T17:06:02.999Z,22.48
2022-09-03T17:08:39.409Z,22.27
2022-09-03T17:11:20.464Z,22.38
2022-09-03T17:14:06.550Z,22.56
2022-09-03T17:16:48.599Z,22.58
2022-09-03T17:19:25.874Z,22.65
2022-09-03T17:22:07.271Z,22.70
2022-09-03T17:24:45.065Z,22.68
2022-09-03T17:27:47.527Z,22.87
2022-09-03T17:30:26.625Z,23.05
2022-09-03T17:33:26.386Z,23.16
2022-09-03T17:36:02.699Z,23.10
2022-09-03T17:38:46.003Z,23.15
2022-09-03T17:41:22.761Z,23.20
2022-09-03T17:44:02.618Z,23.24
2022-09-03T17:46:41.437Z,23.18
2022-09-03T17:49:11.012Z,23.01
2022-09-03T17:51:46.107Z,22.81
2022-09-03T17:54:22.756Z,22.65
2022-09-03T17:56:59.819Z,22.50
2022-09-03T17:59:41.510Z,22.38
2022-09-03T18:02:25.400Z,22.29
2022-09-03T18:04:58.355Z,22.20
2022-09-03T18:07:33.825Z,22.13
2022-09-03T18:10:11.068Z,22.12
2022-09-03T18:13:03.592Z,22.09
2022-09-03T18:15:37.714Z,21.99
2022-09-03T18:18:12.906Z,21.99
2022-09-03T18:21:22.373Z,21.98
2022-09-03T18:24:17.010Z,21.99
2022-09-03T18:27:08.059Z,21.99
2022-09-03T18:30:05.420Z,21.88
2022-09-03T18:32:51.097Z,21.79
2022-09-03T18:35:37.782Z,21.78
2022-09-03T18:38:23.861Z,21.73
2022-09-03T18:41:18.047Z,21.70
2022-09-03T18:44:15.557Z,21.68
2022-09-03T18:50:25.210Z,21.67
2022-09-03T18:53:15.835Z,21.66
2022-09-03T18:56:15.787Z,21.66
2022-09-03T18:59:12.353Z,21.65
2022-09-03T19:02:00.590Z,21.60
2022-09-03T19:04:58.236Z,21.56
2022-09-03T19:08:00.316Z,21.56
2022-09-03T19:10:57.282Z,21.49
2022-09-03T19:13:52.398Z,21.33
2022-09-03T19:16:46.607Z,21.36
2022-09-03T19:20:04.125Z,21.46
2022-09-03T19:22:54.069Z,21.48
2022-09-03T19:25:40.050Z,21.45
2022-09-03T19:28:33.294Z,21.46
2022-09-03T19:31:42.801Z,21.48
2022-09-03T19:34:38.341Z,21.47
2022-09-03T19:37:30.509Z,21.39
2022-09-03T19:40:31.571Z,21.38
2022-09-03T19:43:27.817Z,21.36
2022-09-03T19:46:22.408Z,21.35
2022-09-03T19:49:22.237Z,21.40
2022-09-03T19:52:16.738Z,21.38
2022-09-03T19:55:03.846Z,21.28
2022-09-03T19:57:50.211Z,21.19
2022-09-03T20:00:36.423Z,21.03
2022-09-03T20:03:24.692Z,21.07
2022-09-03T20:06:11.709Z,20.97
2022-09-03T20:08:57.487Z,20.87
2022-09-03T20:11:29.596Z,21.00
2022-09-03T20:14:14.497Z,21.12
2022-09-03T20:16:51.552Z,21.10
2022-09-03T20:19:29.365Z,21.12
2022-09-03T20:22:04.465Z,21.16
2022-09-03T20:24:43.953Z,21.19
2022-09-03T20:27:21.425Z,21.20
2022-09-03T20:29:57.787Z,21.24
2022-09-03T20:33:01.335Z,21.22
2022-09-03T20:35:41.223Z,21.22
2022-09-03T20:38:25.035Z,21.24
2022-09-03T20:41:12.395Z,21.21
2022-09-03T20:46:35.748Z,21.19
2022-09-03T20:49:16.937Z,21.18
2022-09-03T20:51:55.388Z,21.24
2022-09-03T20:54:32.107Z,21.24
2022-09-03T20:57:15.708Z,21.25
2022-09-03T21:00:03.675Z,21.25
2022-09-03T21:02:48.282Z,21.22
2022-09-03T21:05:21.428Z,21.20
2022-09-03T21:08:03.150Z,20.92
2022-09-03T21:10:38.798Z,20.78
2022-09-03T21:13:13.404Z,20.49
2022-09-03T21:15:55.775Z,20.25
2022-09-03T21:18:33.335Z,20.14
2022-09-03T21:21:13.504Z,20.20
2022-09-03T21:23:46.283Z,20.29
2022-09-03T21:26:21.440Z,20.32
2022-09-03T21:29:03.497Z,20.26
2022-09-03T21:31:38.414Z,20.17
2022-09-03T21:34:12.449Z,20.06
2022-09-03T21:36:43.827Z,20.03
2022-09-03T21:39:16.426Z,20.05
2022-09-03T21:41:52.700Z,20.08
2022-09-03T21:44:28.642Z,20.14
2022-09-03T21:47:03.451Z,20.03
2022-09-03T21:49:39.749Z,20.06
2022-09-03T21:52:09.928Z,19.86
2022-09-03T21:54:39.305Z,19.98
2022-09-03T21:57:17.612Z,20.15
2022-09-03T22:00:19.092Z,20.16
2022-09-03T22:02:48.005Z,20.28
2022-09-03T22:05:17.053Z,20.37
2022-09-03T22:08:10.586Z,20.47
2022-09-03T22:10:51.579Z,20.53
2022-09-03T22:13:29.881Z,20.59
2022-09-03T22:16:04.303Z,20.65
2022-09-03T22:18:37.878Z,20.69
2022-09-03T22:21:13.959Z,20.68
2022-09-03T22:23:55.501Z,20.59
2022-09-03T22:30:36.495Z,20.52
2022-09-03T22:33:15.412Z,20.46
2022-09-03T22:35:59.171Z,20.38
2022-09-03T22:38:45.392Z,20.42
2022-09-03T22:41:26.041Z,20.41
2022-09-03T22:44:08.978Z,20.38
2022-09-03T22:46:52.478Z,20.34
2022-09-03T22:49:32.103Z,20.30
2022-09-03T22:52:28.808Z,20.32
2022-09-03T22:55:13.420Z,20.22
2022-09-03T22:57:50.949Z,20.15
2022-09-03T23:00:19.283Z,20.10
2022-09-03T23:02:55.767Z,20.06
2022-09-03T23:05:37.826Z,20.00
2022-09-03T23:08:12.405Z,19.90
2022-09-03T23:11:03.143Z,19.90
2022-09-03T23:13:36.255Z,19.89
2022-09-03T23:16:10.800Z,19.95
2022-09-03T23:18:45.243Z,19.88
2022-09-03T23:21:24.579Z,19.85
2022-09-03T23:23:58.292Z,19.86
2022-09-03T23:26:36.270Z,19.81
2022-09-03T23:29:12.018Z,19.81
2022-09-03T23:31:40.454Z,19.80
2022-09-03T23:34:12.447Z,19.77
2022-09-03T23:37:15.953Z,19.80
2022-09-03T23:40:04.599Z,19.83
2022-09-03T23:42:48.244Z,19.82
2022-09-03T23:45:22.808Z,19.73
2022-09-03T23:47:55.769Z,19.76
2022-09-03T23:50:34.030Z,19.75
2022-09-03T23:53:32.787Z,19.83
2022-09-03T23:56:20.049Z,19.77
2022-09-03T23:59:01.448Z,19.72
